createdAt,value
2022-09-28T00:01:15.641Z,24.30
2022-09-28T00:03:49.364Z,24.20
2022-09-28T00:06:24.477Z,25.08
2022-09-28T00:08:57.626Z,23.83
2022-09-28T00:11:48.302Z,24.95
2022-09-28T00:14:21.029Z,25.73
2022-09-28T00:16:53.132Z,25.90
2022-09-28T00:19:25.055Z,23.85
2022-09-28T00:21:56.961Z,23.20
2022-09-28T00:24:29.557Z,24.70
2022-09-28T00:27:02.915Z,23.50
2022-09-28T00:29:37.124Z,23.58
2022-09-28T00:32:13.929Z,24.67
2022-09-28T00:34:46.351Z,24.08
2022-09-28T00:37:19.872Z,24.65
2022-09-28T00:39:51.862Z,24.42
2022-09-28T00:42:25.812Z,24.52
2022-09-28T00:44:59.141Z,24.85
2022-09-28T00:48:00.574Z,24.73
2022-09-28T00:50:36.628Z,25.27
2022-09-28T00:53:18.872Z,24.10
2022-09-28T00:55:55.298Z,23.33
2022-09-28T00:58:31.336Z,23.65
2022-09-28T01:01:04.440Z,24.25
2022-09-28T01:03:38.339Z,21.30
2022-09-28T01:06:10.783Z,22.55
2022-09-28T01:08:44.665Z,22.83
2022-09-28T01:11:19.602Z,22.30
2022-09-28T01:13:56.681Z,22.17
2022-09-28T01:16:49.513Z,24.17
2022-09-28T01:19:51.533Z,24.33
2022-09-28T01:23:01.414Z,24.13
2022-09-28T01:25:58.407Z,22.38
2022-09-28T01:28:31.203Z,24.55
2022-09-28T01:31:10.258Z,23.88
2022-09-28T01:33:45.990Z,23.95
2022-09-28T01:36:36.755Z,20.02
2022-09-28T01:39:16.348Z,18.92
2022-09-28T01:41:52.421Z,19.02
2022-09-28T01:44:26.039Z,19.83
2022-09-28T01:47:04.287Z,19.33
2022-09-28T01:49:45.306Z,18.40
2022-09-28T01:52:33.079Z,18.30
2022-09-28T01:55:11.384Z,19.33
2022-09-28T01:57:52.881Z,21.23
2022-09-28T02:00:26.299Z,22.65
2022-09-28T02:03:12.584Z,22.80
2022-09-28T02:05:55.298Z,20.80
2022-09-28T02:08:33.391Z,21.00
2022-09-28T02:11:13.922Z,21.85
2022-09-28T02:14:05.573Z,20.80
2022-09-28T02:19:19.676Z,21.15
2022-09-28T02:22:04.545Z,20.08
2022-09-28T02:24:58.486Z,21.25
2022-09-28T02:28:00.302Z,21.15
2022-09-28T02:30:35.729Z,20.58
2022-09-28T02:33:16.535Z,21.08
2022-09-28T02:35:48.831Z,20.73
2022-09-28T02:38:22.251Z,20.25
2022-09-28T02:41:34.899Z,19.45
2022-09-28T02:45:03.929Z,19.65
2022-09-28T02:47:43.636Z,21.20
2022-09-28T02:50:37.910Z,19.90
2022-09-28T02:53:44.211Z,21.10
2022-09-28T02:56:52.279Z,21.20
2022-09-28T02:59:39.902Z,19.88
2022-09-28T03:02:14.552Z,21.27
2022-09-28T03:05:11.164Z,22.10
2022-09-28T03:07:59.735Z,20.55
2022-09-28T03:10:46.751Z,21.13
2022-09-28T03:13:20.486Z,21.85
2022-09-28T03:15:52.421Z,22.48
2022-09-28T03:18:24.559Z,22.02
2022-09-28T03:20:56.721Z,21.42
2022-09-28T03:23:28.664Z,23.40
2022-09-28T03:26:00.662Z,20.55
2022-09-28T03:28:36.313Z,21.67
2022-09-28T03:31:08.993Z,21.98
2022-09-28T03:33:41.267Z,20.38
2022-09-28T03:36:15.136Z,21.48
2022-09-28T03:38:47.025Z,20.80
2022-09-28T03:41:18.934Z,19.67
2022-09-28T03:43:51.121Z,21.25
2022-09-28T03:46:23.142Z,19.88
2022-09-28T03:48:59.263Z,20.33
2022-09-28T03:51:31.154Z,20.52
2022-09-28T03:54:03.086Z,21.20
2022-09-28T03:56:35.561Z,20.48
2022-09-28T03:59:07.780Z,22.08
2022-09-28T04:01:41.283Z,20.73
2022-09-28T04:04:14.159Z,22.45
2022-09-28T04:06:46.082Z,22.23
2022-09-28T04:09:18.031Z,22.73
2022-09-28T04:12:03.337Z,22.90
2022-09-28T04:14:36.919Z,22.10
2022-09-28T04:17:09.195Z,21.08
2022-09-28T04:19:43.173Z,21.50
2022-09-28T04:22:24.326Z,20.48
2022-09-28T04:24:56.146Z,20.73
2022-09-28T04:27:46.885Z,21.50
2022-09-28T04:30:18.756Z,21.67
2022-09-28T04:32:50.836Z,21.83
2022-09-28T04:35:22.820Z,22.95
2022-09-28T04:37:55.090Z,22.15
2022-09-28T04:40:27.093Z,21.27
2022-09-28T04:42:59.140Z,21.13
2022-09-28T04:45:31.084Z,21.20
2022-09-28T04:48:10.555Z,22.02
2022-09-28T04:50:59.048Z,21.75
2022-09-28T04:53:31.650Z,21.10
2022-09-28T04:56:11.634Z,21.88
2022-09-28T04:58:50.302Z,20.27
2022-09-28T05:01:24.711Z,20.50
2022-09-28T05:04:02.426Z,19.38
2022-09-28T05:07:01.480Z,20.77
2022-09-28T05:09:37.670Z,19.88
2022-09-28T05:12:10.357Z,20.15
2022-09-28T05:14:42.743Z,20.92
2022-09-28T05:17:14.560Z,19.83
2022-09-28T05:20:21.769Z,20.15
2022-09-28T05:22:53.676Z,21.35
2022-09-28T05:25:26.265Z,19.23
2022-09-28T05:28:07.898Z,19.17
2022-09-28T05:30:58.062Z,19.35
2022-09-28T05:33:41.696Z,19.38
2022-09-28T05:36:18.380Z,18.25
2022-09-28T05:38:50.274Z,18.92
2022-09-28T05:41:22.213Z,17.20
2022-09-28T05:43:55.059Z,17.92
2022-09-28T05:46:27.680Z,18.02
2022-09-28T05:49:00.382Z,17.73
2022-09-28T05:51:32.861Z,18.50
2022-09-28T05:54:06.197Z,17.88
2022-09-28T05:56:41.309Z,18.33
2022-09-28T05:59:13.756Z,16.05
2022-09-28T06:01:46.652Z,15.77
2022-09-28T06:04:19.483Z,15.63
2022-09-28T06:06:53.206Z,14.63
2022-09-28T06:09:26.199Z,15.02
2022-09-28T06:12:07.169Z,13.93
2022-09-28T06:14:51.016Z,13.90
2022-09-28T06:17:23.038Z,13.07
2022-09-28T06:20:14.856Z,12.10
2022-09-28T06:23:01.153Z,11.85
2022-09-28T06:25:33.244Z,10.55
2022-09-28T06:28:09.951Z,7.78
2022-09-28T06:30:43.630Z,7.40
2022-09-28T06:33:18.003Z,7.30
2022-09-28T06:35:52.138Z,6.95
2022-09-28T06:38:24.086Z,6.47
2022-09-28T06:40:57.680Z,6.35
2022-09-28T06:43:34.252Z,5.82
2022-09-28T06:46:32.784Z,5.13
2022-09-28T06:49:31.049Z,3.97
2022-09-28T06:52:31.570Z,3.97
2022-09-28T06:55:22.799Z,3.28
2022-09-28T06:58:09.527Z,4.10
2022-09-28T07:00:41.995Z,4.63
2022-09-28T07:03:16.229Z,3.22
2022-09-28T07:06:06.743Z,2.80
2022-09-28T07:09:06.844Z,3.50
2022-09-28T07:12:25.441Z,3.13
2022-09-28T07:15:07.391Z,3.40
2022-09-28T07:17:53.098Z,3.00
2022-09-28T07:20:43.265Z,2.88
2022-09-28T07:23:20.100Z,3.83
2022-09-28T07:26:24.781Z,4.72
2022-09-28T07:29:19.780Z,4.35
2022-09-28T07:32:17.732Z,5.10
2022-09-28T07:35:19.949Z,5.40
2022-09-28T07:38:00.349Z,4.68
2022-09-28T07:40:53.360Z,3.45
2022-09-28T07:43:25.749Z,1.98
2022-09-28T07:45:59.030Z,1.52
2022-09-28T07:48:36.710Z,1.88
2022-09-28T07:51:44.771Z,1.70
2022-09-28T07:54:52.108Z,1.30
2022-09-28T07:57:39.994Z,1.27
2022-09-28T08:00:34.770Z,1.60
2022-09-28T08:03:07.287Z,1.40
2022-09-28T08:05:39.600Z,1.38
2022-09-28T08:08:11.511Z,1.20
2022-09-28T08:10:46.936Z,0.82
2022-09-28T08:13:48.343Z,1.00
2022-09-28T08:16:40.893Z,0.90
2022-09-28T08:19:19.532Z,43.78
2022-09-28T08:21:52.825Z,1.58
2022-09-28T08:24:24.808Z,1.55
2022-09-28T08:26:58.974Z,0.98
2022-09-28T08:29:33.495Z,1.20
2022-09-28T08:32:35.793Z,0.85
2022-09-28T08:35:26.524Z,0.95
2022-09-28T08:38:15.435Z,0.90
2022-09-28T08:41:32.307Z,1.05
2022-09-28T08:44:25.096Z,1.00
2022-09-28T08:47:54.565Z,1.02
2022-09-28T08:51:00.731Z,0.90
2022-09-28T08:54:29.549Z,0.90
2022-09-28T08:57:11.907Z,1.10
2022-09-28T08:59:59.741Z,0.85
2022-09-28T09:02:39.803Z,0.73
2022-09-28T09:05:39.502Z,1.13
2022-09-28T09:08:31.063Z,1.10
2022-09-28T09:11:43.829Z,1.40
2022-09-28T09:14:38.976Z,0.90
2022-09-28T09:17:23.235Z,1.40
2022-09-28T09:23:32.079Z,0.80
2022-09-28T09:26:22.517Z,2.45
2022-09-28T09:28:59.856Z,2.55
2022-09-28T09:32:03.021Z,2.95
2022-09-28T09:34:47.313Z,1.25
2022-09-28T09:37:40.879Z,80.65
2022-09-28T09:40:48.235Z,25.80
2022-09-28T09:44:16.367Z,1.00
2022-09-28T09:47:31.301Z,1.25
2022-09-28T09:50:31.505Z,7.45
2022-09-28T09:53:36.185Z,7.30
2022-09-28T09:56:44.218Z,0.90
2022-09-28T09:59:33.716Z,1.13
2022-09-28T10:02:34.988Z,0.93
2022-09-28T10:05:25.511Z,1.00
2022-09-28T10:08:10.896Z,4.78
2022-09-28T10:11:02.346Z,1.40
2022-09-28T10:13:35.514Z,85.10
2022-09-28T10:16:14.376Z,1.40
2022-09-28T10:18:55.821Z,1.40
2022-09-28T10:21:51.924Z,0.80
2022-09-28T10:24:46.054Z,1.15
2022-09-28T10:27:33.760Z,1.30
2022-09-28T10:30:17.649Z,1.00
2022-09-28T10:32:53.793Z,1.00
2022-09-28T10:35:29.569Z,1.23
2022-09-28T10:38:07.420Z,0.90
2022-09-28T10:41:00.622Z,39.75
2022-09-28T10:44:07.166Z,12.30
2022-09-28T10:46:56.779Z,0.82
2022-09-28T10:49:37.562Z,1.10
2022-09-28T10:52:45.181Z,1.10
2022-09-28T10:55:32.639Z,1.00
2022-09-28T10:58:26.142Z,0.90
2022-09-28T11:01:05.872Z,0.82
2022-09-28T11:03:54.610Z,0.90
2022-09-28T11:06:41.844Z,0.90
2022-09-28T11:09:34.803Z,1.00
2022-09-28T11:12:16.627Z,1.02
2022-09-28T11:14:55.502Z,1.42
2022-09-28T11:17:32.718Z,1.40
2022-09-28T11:20:28.351Z,1.00
2022-09-28T11:23:29.489Z,0.82
2022-09-28T11:26:11.923Z,0.88
2022-09-28T11:31:29.246Z,1.10
2022-09-28T11:34:41.804Z,2.22
2022-09-28T11:38:09.898Z,1.00
2022-09-28T11:41:55.591Z,0.93
2022-09-28T11:44:44.559Z,1.08
2022-09-28T11:47:51.233Z,0.90
2022-09-28T11:50:45.492Z,0.73
2022-09-28T11:53:31.499Z,7.57
2022-09-28T11:56:29.367Z,20.10
2022-09-28T11:59:18.732Z,1.75
2022-09-28T12:01:56.826Z,13.65
2022-09-28T12:04:43.985Z,20.42
2022-09-28T12:07:35.675Z,4.07
2022-09-28T12:10:23.623Z,6.63
2022-09-28T12:13:28.835Z,13.05
2022-09-28T12:16:38.486Z,1.08
2022-09-28T12:19:20.764Z,0.80
2022-09-28T12:21:59.605Z,0.85
2022-09-28T12:24:50.854Z,1.13
2022-09-28T12:27:50.554Z,0.70
2022-09-28T12:30:27.159Z,1.10
2022-09-28T12:33:04.718Z,1.02
2022-09-28T12:36:03.951Z,1.02
2022-09-28T12:39:17.423Z,1.13
2022-09-28T12:41:54.852Z,24.58
2022-09-28T12:45:00.685Z,37.92
2022-09-28T12:48:10.446Z,4.30
2022-09-28T12:51:00.510Z,1.30
2022-09-28T12:53:51.328Z,3.10
2022-09-28T12:57:06.432Z,2.13
2022-09-28T13:00:15.898Z,1.15
2022-09-28T13:03:13.361Z,1.25
2022-09-28T13:06:11.104Z,1.30
2022-09-28T13:08:48.514Z,1.40
2022-09-28T13:11:33.267Z,1.27
2022-09-28T13:14:10.935Z,1.80
2022-09-28T13:17:22.758Z,1.05
2022-09-28T13:19:58.141Z,1.27
2022-09-28T13:23:02.366Z,1.30
2022-09-28T13:25:36.409Z,1.40
2022-09-28T13:28:11.481Z,1.10
2022-09-28T13:30:45.192Z,1.10
2022-09-28T13:33:33.759Z,1.85
2022-09-28T13:36:30.538Z,1.20
2022-09-28T13:39:02.527Z,1.58
2022-09-28T13:41:38.011Z,1.52
2022-09-28T13:44:13.171Z,1.27
2022-09-28T13:47:11.403Z,1.10
2022-09-28T13:49:48.759Z,1.50
2022-09-28T13:52:20.571Z,1.70
2022-09-28T13:54:58.099Z,2.05
2022-09-28T13:57:35.975Z,1.35
2022-09-28T14:00:19.242Z,1.15
2022-09-28T14:02:58.870Z,1.00
2022-09-28T14:05:53.802Z,1.23
2022-09-28T14:08:34.686Z,1.30
2022-09-28T14:11:40.238Z,1.30
2022-09-28T14:14:13.778Z,1.20
2022-09-28T14:16:45.726Z,1.20
2022-09-28T14:19:31.377Z,1.10
2022-09-28T14:22:15.034Z,1.30
2022-09-28T14:24:49.961Z,1.10
2022-09-28T14:28:00.307Z,1.10
2022-09-28T14:30:38.177Z,1.17
2022-09-28T14:33:19.376Z,1.05
2022-09-28T14:39:18.943Z,1.17
2022-09-28T14:41:52.243Z,1.02
2022-09-28T14:44:25.009Z,1.15
2022-09-28T14:47:34.174Z,1.35
2022-09-28T14:50:23.249Z,1.30
2022-09-28T14:53:04.340Z,1.20
2022-09-28T14:58:22.550Z,1.33
2022-09-28T15:01:02.845Z,1.10
2022-09-28T15:03:38.251Z,0.82
2022-09-28T15:06:16.666Z,1.10
2022-09-28T15:08:48.705Z,0.80
2022-09-28T15:11:24.149Z,0.88
2022-09-28T15:14:07.338Z,1.10
2022-09-28T15:16:39.201Z,1.30
2022-09-28T15:19:22.835Z,1.10
2022-09-28T15:21:54.987Z,1.20
2022-09-28T15:24:33.579Z,1.20
2022-09-28T15:27:15.631Z,1.77
2022-09-28T15:30:01.757Z,1.40
2022-09-28T15:32:33.699Z,1.30
2022-09-28T15:35:26.318Z,1.48
2022-09-28T15:37:58.318Z,1.73
2022-09-28T15:40:37.803Z,1.60
2022-09-28T15:43:29.093Z,1.88
2022-09-28T15:46:18.479Z,1.55
2022-09-28T15:48:55.406Z,1.40
2022-09-28T15:51:28.999Z,1.73
2022-09-28T15:54:09.477Z,1.50
2022-09-28T15:56:59.687Z,1.50
2022-09-28T15:59:39.648Z,2.00
2022-09-28T16:02:25.277Z,1.70
2022-09-28T16:05:00.546Z,1.90
2022-09-28T16:07:40.775Z,1.58
2022-09-28T16:10:12.588Z,1.30
2022-09-28T16:12:48.595Z,1.33
2022-09-28T16:15:21.576Z,2.17
2022-09-28T16:18:06.947Z,1.65
2022-09-28T16:20:43.243Z,1.38
2022-09-28T16:23:19.801Z,1.70
2022-09-28T16:26:03.049Z,2.33
2022-09-28T16:28:37.636Z,1.27
2022-09-28T16:31:12.458Z,1.60
2022-09-28T16:34:11.549Z,1.50
2022-09-28T16:36:46.082Z,1.27
2022-09-28T16:39:19.585Z,1.52
2022-09-28T16:41:59.527Z,1.40
2022-09-28T16:44:32.987Z,1.42
2022-09-28T16:47:06.369Z,1.75
2022-09-28T16:49:39.988Z,1.70
2022-09-28T16:52:41.759Z,1.87
2022-09-28T16:55:38.933Z,1.90
2022-09-28T16:58:08.634Z,1.75
2022-09-28T17:00:43.508Z,1.67
2022-09-28T17:03:18.449Z,1.85
2022-09-28T17:05:51.523Z,2.03
2022-09-28T17:08:25.171Z,1.80
2022-09-28T17:11:14.921Z,1.70
2022-09-28T17:13:48.664Z,1.83
2022-09-28T17:16:43.570Z,1.63
2022-09-28T17:19:25.596Z,1.33
2022-09-28T17:21:57.572Z,1.50
2022-09-28T17:24:29.526Z,2.03
2022-09-28T17:27:03.293Z,1.92
2022-09-28T17:29:35.166Z,1.48
2022-09-28T17:32:17.307Z,2.22
2022-09-28T17:35:00.726Z,2.35
2022-09-28T17:37:36.272Z,2.17
2022-09-28T17:40:28.296Z,2.00
2022-09-28T17:43:01.090Z,1.80
2022-09-28T17:45:39.035Z,2.03
2022-09-28T17:48:15.867Z,1.98
2022-09-28T17:50:48.301Z,2.22
2022-09-28T17:53:20.218Z,1.88
2022-09-28T17:55:52.724Z,1.90
2022-09-28T17:58:24.782Z,2.13
2022-09-28T18:00:56.597Z,1.90
2022-09-28T18:03:28.474Z,2.28
2022-09-28T18:06:06.625Z,1.70
2022-09-28T18:08:38.786Z,2.10
2022-09-28T18:11:11.503Z,2.10
2022-09-28T18:13:45.989Z,2.17
2022-09-28T18:16:19.559Z,2.20
2022-09-28T18:18:51.460Z,76.40
2022-09-28T18:21:23.480Z,2.42
2022-09-28T18:23:55.419Z,2.20
2022-09-28T18:26:27.359Z,2.22
2022-09-28T18:28:59.243Z,2.03
2022-09-28T18:31:31.127Z,1.80
2022-09-28T18:34:02.978Z,2.28
2022-09-28T18:36:35.888Z,2.10
2022-09-28T18:39:07.778Z,2.10
2022-09-28T18:41:39.758Z,2.33
2022-09-28T18:44:11.572Z,2.00
2022-09-28T18:46:43.633Z,2.20
2022-09-28T18:49:15.597Z,2.20
2022-09-28T18:51:47.763Z,2.33
2022-09-28T18:54:19.690Z,2.53
2022-09-28T18:56:56.272Z,2.25
2022-09-28T18:59:28.442Z,2.25
2022-09-28T19:02:01.699Z,2.28
2022-09-28T19:04:33.731Z,2.25
2022-09-28T19:07:06.587Z,2.20
2022-09-28T19:09:43.857Z,2.55
2022-09-28T19:12:15.998Z,2.53
2022-09-28T19:14:47.849Z,2.35
2022-09-28T19:17:19.800Z,2.17
2022-09-28T19:19:52.100Z,2.30
2022-09-28T19:22:23.938Z,2.40
2022-09-28T19:24:55.879Z,2.50
2022-09-28T19:27:27.715Z,2.60
2022-09-28T19:29:59.561Z,3.97
2022-09-28T19:32:31.415Z,2.35
2022-09-28T19:35:04.133Z,2.28
2022-09-28T19:37:39.457Z,2.30
2022-09-28T19:40:11.358Z,5.90
2022-09-28T19:42:43.155Z,5.15
2022-09-28T19:45:15.107Z,2.40
2022-09-28T19:47:49.181Z,4.47
2022-09-28T19:50:21.274Z,2.63
2022-09-28T19:52:53.292Z,3.30
2022-09-28T19:55:25.122Z,2.88
2022-09-28T19:57:57.112Z,2.13
2022-09-28T20:00:29.059Z,2.20
2022-09-28T20:03:00.987Z,2.17
2022-09-28T20:05:32.893Z,2.20
2022-09-28T20:08:05.097Z,1.95
2022-09-28T20:10:37.003Z,2.30
2022-09-28T20:13:08.847Z,2.20
2022-09-28T20:15:41.584Z,2.28
2022-09-28T20:18:13.778Z,2.03
2022-09-28T20:20:45.611Z,1.95
2022-09-28T20:23:17.782Z,1.90
2022-09-28T20:25:52.728Z,1.90
2022-09-28T20:28:25.087Z,3.58
2022-09-28T20:31:12.365Z,18.90
2022-09-28T20:33:44.642Z,2.75
2022-09-28T20:36:22.133Z,2.75
2022-09-28T20:38:54.691Z,2.00
2022-09-28T20:41:27.451Z,2.05
2022-09-28T20:44:04.165Z,2.40
2022-09-28T20:46:38.223Z,2.15
2022-09-28T20:49:10.320Z,2.90
2022-09-28T20:51:42.238Z,2.00
2022-09-28T20:54:14.272Z,2.08
2022-09-28T20:56:48.195Z,2.38
2022-09-28T20:59:22.874Z,3.10
2022-09-28T21:01:54.779Z,1.90
2022-09-28T21:04:27.074Z,1.73
2022-09-28T21:06:58.902Z,1.77
2022-09-28T21:09:32.155Z,1.88
2022-09-28T21:12:05.004Z,2.20
2022-09-28T21:14:36.823Z,1.73
2022-09-28T21:17:08.648Z,1.55
2022-09-28T21:19:40.596Z,2.20
2022-09-28T21:22:12.486Z,1.67
2022-09-28T21:24:44.385Z,1.65
2022-09-28T21:27:16.603Z,1.48
2022-09-28T21:29:48.516Z,1.90
2022-09-28T21:32:20.423Z,1.85
2022-09-28T21:34:52.572Z,1.80
2022-09-28T21:37:24.397Z,1.55
2022-09-28T21:39:56.365Z,1.63
2022-09-28T21:42:28.215Z,1.58
2022-09-28T21:45:00.049Z,1.63
2022-09-28T21:47:31.967Z,1.50
2022-09-28T21:50:04.028Z,1.67
2022-09-28T21:52:36.270Z,1.60
2022-09-28T21:55:08.655Z,1.70
2022-09-28T21:57:40.523Z,1.58
2022-09-28T22:00:14.222Z,1.98
2022-09-28T22:02:46.377Z,1.45
2022-09-28T22:05:19.210Z,1.50
2022-09-28T22:07:51.099Z,1.60
2022-09-28T22:10:22.981Z,1.98
2022-09-28T22:12:54.869Z,1.50
2022-09-28T22:15:26.718Z,1.50
2022-09-28T22:17:58.537Z,2.17
2022-09-28T22:20:30.391Z,1.08
2022-09-28T22:23:02.211Z,1.40
2022-09-28T22:25:35.584Z,1.65
2022-09-28T22:28:07.465Z,1.50
2022-09-28T22:30:39.316Z,1.58
2022-09-28T22:33:11.164Z,1.73
2022-09-28T22:35:42.996Z,1.25
2022-09-28T22:38:15.639Z,1.60
2022-09-28T22:40:49.186Z,1.50
2022-09-28T22:43:23.339Z,1.30
2022-09-28T22:46:07.254Z,1.55
2022-09-28T22:48:39.716Z,1.50
2022-09-28T22:51:11.727Z,1.67
2022-09-28T22:53:44.009Z,1.38
2022-09-28T22:56:19.059Z,1.40
2022-09-28T22:58:51.223Z,1.70
2022-09-28T23:01:26.003Z,1.50
2022-09-28T23:03:59.511Z,1.25
2022-09-28T23:06:33.048Z,1.10
2022-09-28T23:09:05.155Z,1.65
2022-09-28T23:11:37.334Z,1.60
2022-09-28T23:14:11.128Z,1.80
2022-09-28T23:16:42.933Z,1.58
2022-09-28T23:19:14.834Z,1.42
2022-09-28T23:21:46.648Z,1.50
2022-09-28T23:24:18.950Z,1.45
2022-09-28T23:26:50.859Z,1.40
2022-09-28T23:29:22.780Z,1.33
2022-09-28T23:31:54.638Z,1.60
2022-09-28T23:34:26.459Z,1.60
2022-09-28T23:36:58.251Z,1.70
2022-09-28T23:39:30.064Z,1.58
2022-09-28T23:42:02.723Z,1.70
2022-09-28T23:44:36.522Z,1.90
2022-09-28T23:47:17.108Z,1.73
2022-09-28T23:49:49.011Z,3.92
2022-09-28T23:52:20.911Z,2.03
2022-09-28T23:54:52.822Z,1.65
2022-09-28T23:57:25.385Z,1.70
2022-09-28T23:59:57.364Z,1.90
